Time;durP1;ratioP1;P1;durP2;ratioP2;P2;SDS_P1;SDS_P2;PMS_P1;PMS_P2;Temp;Humidity;BMP_temperature;BMP_pressure;BME280_temperature;BME280_humidity;BME280_pressure;Samples;Min_cycle;Max_cycle;Signal;HPM_P1;HPM_P2
2023/04/15 00:00:58;;;;;;;3.55;3.30;;;;;;;;;;4855342;29;20102;-81
2023/04/15 00:03:27;;;;;;;3.47;3.17;;;;;;;;;;4854845;29;20079;-81
2023/04/15 00:05:55;;;;;;;3.63;3.33;;;;;;;;;;4852509;29;20064;-81
2023/04/15 00:08:22;;;;;;;3.78;3.47;;;;;;;;;;4854287;29;20487;-81
2023/04/15 00:10:49;;;;;;;3.33;3.03;;;;;;;;;;4856795;29;20082;-81
2023/04/15 00:13:17;;;;;;;4.07;3.15;;;;;;;;;;4854569;29;20532;-81
2023/04/15 00:15:44;;;;;;;4.18;2.80;;;;;;;;;;4856235;29;20053;-81
2023/04/15 00:18:12;;;;;;;3.85;3.53;;;;;;;;;;4842697;29;20141;-81
2023/04/15 00:20:39;;;;;;;130.20;102.50;;;;;;;;;;4844335;29;20072;-81
2023/04/15 00:23:07;;;;;;;4.20;3.80;;;;;;;;;;4857391;29;20070;-81
2023/04/15 00:25:34;;;;;;;3.08;2.88;;;;;;;;;;4857946;29;20448;-81
2023/04/15 00:28:01;;;;;;;3.25;3.05;;;;;;;;;;4846645;29;20128;-81
2023/04/15 00:30:29;;;;;;;4.03;3.63;;;;;;;;;;4844878;29;20058;-81
2023/04/15 00:32:56;;;;;;;3.47;3.17;;;;;;;;;;4855701;29;20540;-81
2023/04/15 00:35:24;;;;;;;3.92;3.63;;;;;;;;;;4848992;29;20049;-81
2023/04/15 00:37:51;;;;;;;5.28;4.15;;;;;;;;;;4851142;29;20050;-81
2023/04/15 00:40:20;;;;;;;5.00;4.60;;;;;;;;;;4851302;29;20065;-81
2023/04/15 00:42:49;;;;;;;7.07;5.00;;;;;;;;;;4861173;29;20061;-81
2023/04/15 00:45:16;;;;;;;4.78;4.35;;;;;;;;;;4849885;29;20076;-81
2023/04/15 00:47:44;;;;;;;4.65;4.28;;;;;;;;;;4848815;29;20050;-81
2023/04/15 00:50:12;;;;;;;4.63;3.53;;;;;;;;;;4846136;29;20094;-81
2023/04/15 00:52:40;;;;;;;23.13;16.70;;;;;;;;;;4845853;29;20061;-82
2023/04/15 00:55:08;;;;;;;4.00;3.70;;;;;;;;;;4846182;29;20065;-81
2023/04/15 00:57:35;;;;;;;5.43;4.47;;;;;;;;;;4855552;29;20041;-81
2023/04/15 01:00:04;;;;;;;4.43;4.03;;;;;;;;;;4844883;29;20050;-81
2023/04/15 01:02:32;;;;;;;4.75;3.90;;;;;;;;;;4851252;29;20065;-81
2023/04/15 01:05:02;;;;;;;3.35;3.05;;;;;;;;;;4849247;29;20433;-82
2023/04/15 01:07:30;;;;;;;3.90;3.60;;;;;;;;;;4856565;29;20053;-82
2023/04/15 01:09:58;;;;;;;3.83;3.53;;;;;;;;;;4845217;29;20106;-82
2023/04/15 01:12:26;;;;;;;4.05;3.72;;;;;;;;;;4843922;29;20098;-82
2023/04/15 01:14:55;;;;;;;4.32;3.92;;;;;;;;;;4858505;29;20073;-81
2023/04/15 01:17:24;;;;;;;3.00;2.80;;;;;;;;;;4860476;29;20052;-82
2023/04/15 01:19:58;;;;;;;3.60;3.30;;;;;;;;;;4855284;29;20046;-81
2023/04/15 01:22:27;;;;;;;5.20;4.70;;;;;;;;;;4844491;29;20058;-81
2023/04/15 01:24:58;;;;;;;4.75;4.22;;;;;;;;;;4859203;29;20106;-81
2023/04/15 01:27:26;;;;;;;3.67;3.40;;;;;;;;;;4854381;29;20145;-81
2023/04/15 01:29:53;;;;;;;5.75;4.32;;;;;;;;;;4847905;29;20372;-81
2023/04/15 01:32:21;;;;;;;5.38;3.92;;;;;;;;;;4850337;29;20050;-81
2023/04/15 01:35:09;;;;;;;4.97;4.28;;;;;;;;;;4852634;29;20145;-81
2023/04/15 01:37:47;;;;;;;4.40;4.00;;;;;;;;;;4857462;29;20045;-82
2023/04/15 01:40:16;;;;;;;3.95;3.65;;;;;;;;;;4852008;29;20540;-81
2023/04/15 01:42:45;;;;;;;13.75;12.55;;;;;;;;;;4853590;29;20060;-81
2023/04/15 01:45:16;;;;;;;7.18;4.78;;;;;;;;;;4842812;29;20064;-81
2023/04/15 01:47:45;;;;;;;4.13;3.83;;;;;;;;;;4858895;29;20052;-82
2023/04/15 01:50:14;;;;;;;4.97;4.40;;;;;;;;;;4857806;29;20075;-81
2023/04/15 01:52:42;;;;;;;4.75;4.35;;;;;;;;;;4853298;29;20056;-81
2023/04/15 01:55:12;;;;;;;3.40;3.17;;;;;;;;;;4847356;29;20054;-82
2023/04/15 01:57:41;;;;;;;5.55;4.75;;;;;;;;;;4854299;29;20136;-81
2023/04/15 02:00:10;;;;;;;14.23;12.85;;;;;;;;;;4853125;29;20168;-82
2023/04/15 02:02:43;;;;;;;4.70;4.30;;;;;;;;;;4845503;29;20038;-82
2023/04/15 02:09:44;;;;;;;5.13;4.63;;;;;;;;;;4824528;29;20054;-88
2023/04/15 02:13:35;;;;;;;3.58;3.28;;;;;;;;;;4828155;29;20046;-88
2023/04/15 02:16:38;;;;;;;4.38;3.97;;;;;;;;;;4756019;30;20063;-88
2023/04/15 02:19:11;;;;;;;4.80;4.40;;;;;;;;;;4733671;30;20544;-89
2023/04/15 02:21:56;;;;;;;3.45;3.15;;;;;;;;;;4763041;30;20060;-89
2023/04/15 02:25:50;;;;;;;;;;;;;;;;;;;;;
2023/04/15 02:29:04;;;;;;;2.83;2.63;;;;;;;;;;4760168;30;20090;-88
2023/04/15 02:35:08;;;;;;;3.28;3.00;;;;;;;;;;4767033;30;20043;-88
2023/04/15 02:38:21;;;;;;;3.08;2.85;;;;;;;;;;4768884;30;20062;-88
2023/04/15 02:42:27;;;;;;;;;;;;;;;;;;4790679;29;20389;-88
2023/04/15 02:45:42;;;;;;;3.30;3.00;;;;;;;;;;4789150;30;20024;-88
2023/04/15 02:48:53;;;;;;;3.58;3.38;;;;;;;;;;4782077;30;20130;-88
2023/04/15 02:51:34;;;;;;;5.10;3.53;;;;;;;;;;4774307;30;20074;-88
2023/04/15 02:54:19;;;;;;;4.07;3.53;;;;;;;;;;4778677;30;20059;-88
2023/04/15 02:57:06;;;;;;;6.15;3.95;;;;;;;;;;4778734;30;20057;-87
2023/04/15 03:00:15;;;;;;;3.33;3.08;;;;;;;;;;4818731;29;20048;-89
2023/04/15 03:03:00;;;;;;;5.15;4.60;;;;;;;;;;4842835;29;20049;-89
2023/04/15 03:05:33;;;;;;;3.95;3.55;;;;;;;;;;4842899;29;20128;-88
2023/04/15 03:08:05;;;;;;;4.20;3.80;;;;;;;;;;4843943;29;20161;-87
2023/04/15 03:10:34;;;;;;;2.83;2.63;;;;;;;;;;4838380;29;20105;-88
2023/04/15 03:13:40;;;;;;;3.55;3.00;;;;;;;;;;4837311;29;20121;-88
2023/04/15 03:16:32;;;;;;;2.50;2.40;;;;;;;;;;4841443;29;20072;-89
2023/04/15 03:19:25;;;;;;;3.78;3.03;;;;;;;;;;4843461;29;20117;-89
2023/04/15 03:22:27;;;;;;;2.80;2.60;;;;;;;;;;4857749;29;20110;-88
2023/04/15 03:25:16;;;;;;;3.50;3.20;;;;;;;;;;4844985;29;20101;-88
2023/04/15 03:27:46;;;;;;;3.55;3.20;;;;;;;;;;4846560;29;20594;-87
2023/04/15 03:30:41;;;;;;;4.93;4.25;;;;;;;;;;4841841;29;20181;-87
2023/04/15 03:33:13;;;;;;;3.75;3.45;;;;;;;;;;4836604;29;20129;-87
2023/04/15 03:35:56;;;;;;;8.93;5.18;;;;;;;;;;4849643;29;20077;-88
2023/04/15 03:38:36;;;;;;;7.45;4.85;;;;;;;;;;4851130;29;20073;-88
2023/04/15 03:41:04;;;;;;;3.92;3.53;;;;;;;;;;4849431;29;20070;-88
2023/04/15 03:43:33;;;;;;;4.38;3.97;;;;;;;;;;4854222;29;20786;-88
2023/04/15 03:46:11;;;;;;;4.50;4.10;;;;;;;;;;4853505;29;20086;-88
2023/04/15 03:48:40;;;;;;;4.97;4.22;;;;;;;;;;4849995;29;20066;-88
2023/04/15 03:51:43;;;;;;;5.90;4.18;;;;;;;;;;4851831;29;20076;-89
2023/04/15 03:54:30;;;;;;;2.92;2.72;;;;;;;;;;4850638;29;20129;-88
2023/04/15 04:01:07;;;;;;;2.00;1.90;;;;;;;;;;4833425;29;20050;-88
2023/04/15 04:04:19;;;;;;;65.28;50.90;;;;;;;;;;4792320;30;20132;-88
2023/04/15 04:07:16;;;;;;;;;;;;;;;;;;;;;
2023/04/15 04:14:28;;;;;;;3.00;2.55;;;;;;;;;;4777779;30;20059;-89
2023/04/15 04:17:54;;;;;;;2.40;2.30;;;;;;;;;;4758766;30;20082;-89
2023/04/15 04:20:56;;;;;;;3.05;2.13;;;;;;;;;;4748905;30;20051;-89
2023/04/15 04:24:03;;;;;;;1.85;1.75;;;;;;;;;;4776064;30;20062;-88
2023/04/15 04:27:53;;;;;;;2.05;1.70;;;;;;;;;;4766261;30;20058;-88
2023/04/15 04:39:09;;;;;;;1.23;1.23;;;;;;;;;;4848944;29;20046;-87
2023/04/15 04:42:27;;;;;;;8.60;7.93;;;;;;;;;;4849855;29;20061;-88
2023/04/15 04:45:20;;;;;;;2.17;1.27;;;;;;;;;;4848362;29;20076;-89
2023/04/15 04:48:05;;;;;;;45.35;40.45;;;;;;;;;;4849412;29;20073;-87
2023/04/15 04:50:40;;;;;;;1.58;1.48;;;;;;;;;;4854777;29;20141;-88
2023/04/15 04:53:15;;;;;;;1.63;1.58;;;;;;;;;;4846659;29;20200;-87
2023/04/15 04:55:55;;;;;;;2.05;1.60;;;;;;;;;;4835374;29;20113;-88
2023/04/15 04:58:31;;;;;;;1.50;1.40;;;;;;;;;;4843399;29;20134;-88
2023/04/15 05:01:02;;;;;;;31.67;21.77;;;;;;;;;;4837679;29;20276;-88
2023/04/15 05:03:33;;;;;;;1.73;1.63;;;;;;;;;;4840825;29;20125;-88
2023/04/15 05:06:05;;;;;;;1.88;1.77;;;;;;;;;;4837007;29;20054;-88
2023/04/15 05:08:40;;;;;;;2.08;1.98;;;;;;;;;;4848255;29;20049;-89
2023/04/15 05:11:11;;;;;;;1.02;1.02;;;;;;;;;;4834539;29;20050;-90
2023/04/15 05:13:46;;;;;;;1.73;1.30;;;;;;;;;;4837075;29;20045;-90
2023/04/15 05:16:20;;;;;;;3.75;1.50;;;;;;;;;;4835626;29;20046;-89
2023/04/15 05:18:58;;;;;;;1.30;1.20;;;;;;;;;;4839683;29;20122;-88
2023/04/15 05:21:30;;;;;;;;;;;;;;;;;;4831271;29;20054;-89
2023/04/15 05:24:05;;;;;;;1.00;1.00;;;;;;;;;;4834650;29;19928;-89
2023/04/15 05:26:40;;;;;;;1.40;1.30;;;;;;;;;;4833015;29;20057;-89
2023/04/15 05:29:20;;;;;;;1.50;1.40;;;;;;;;;;4834545;29;20046;-89
2023/04/15 05:32:01;;;;;;;1.60;1.60;;;;;;;;;;4838300;29;20511;-88
2023/04/15 05:34:59;;;;;;;1.42;1.33;;;;;;;;;;4836930;29;20349;-89
2023/04/15 05:37:32;;;;;;;1.40;1.30;;;;;;;;;;4847046;29;20117;-88
2023/04/15 05:40:09;;;;;;;1.20;1.20;;;;;;;;;;4842436;29;20046;-88
2023/04/15 05:42:38;;;;;;;1.25;1.10;;;;;;;;;;4836520;29;20060;-88
2023/04/15 05:45:12;;;;;;;0.80;0.80;;;;;;;;;;4835671;29;20069;-88
2023/04/15 05:47:44;;;;;;;1.95;1.00;;;;;;;;;;4832715;29;20056;-88
2023/04/15 05:50:16;;;;;;;0.80;0.80;;;;;;;;;;4837094;29;20529;-90
2023/04/15 05:52:54;;;;;;;28.05;25.73;;;;;;;;;;4834836;29;20720;-89
2023/04/15 05:55:23;;;;;;;0.70;0.70;;;;;;;;;;4835422;29;20056;-88
2023/04/15 05:57:52;;;;;;;11.70;10.68;;;;;;;;;;4833056;29;20626;-88
2023/04/15 06:00:21;;;;;;;11.60;8.55;;;;;;;;;;4834723;29;20046;-87
2023/04/15 06:02:50;;;;;;;0.43;0.43;;;;;;;;;;4832730;29;20050;-87
2023/04/15 06:05:19;;;;;;;1.00;0.60;;;;;;;;;;4829071;29;20050;-87
2023/04/15 06:07:48;;;;;;;0.60;0.60;;;;;;;;;;4834925;29;20043;-88
2023/04/15 06:10:17;;;;;;;60.92;33.92;;;;;;;;;;4831913;29;20051;-87
2023/04/15 06:12:45;;;;;;;15.25;13.80;;;;;;;;;;4830699;29;20053;-87
2023/04/15 06:15:14;;;;;;;0.40;0.40;;;;;;;;;;4831668;29;20066;-88
2023/04/15 06:17:42;;;;;;;0.60;0.38;;;;;;;;;;4827989;29;20058;-88
2023/04/15 06:20:11;;;;;;;1.25;1.15;;;;;;;;;;4833793;29;20056;-87
2023/04/15 06:22:41;;;;;;;2.45;0.50;;;;;;;;;;4850847;29;20741;-87
2023/04/15 06:25:09;;;;;;;2.63;0.70;;;;;;;;;;4829064;29;20059;-87
2023/04/15 06:27:38;;;;;;;3.47;3.25;;;;;;;;;;4828380;29;20057;-87
2023/04/15 06:30:10;;;;;;;1.10;1.00;;;;;;;;;;4829115;29;20057;-87
2023/04/15 06:32:45;;;;;;;12.80;7.93;;;;;;;;;;4833170;29;20060;-89
2023/04/15 06:35:17;;;;;;;2.13;1.75;;;;;;;;;;4830099;29;20058;-87
2023/04/15 06:37:46;;;;;;;0.80;0.80;;;;;;;;;;4829409;29;20058;-88
2023/04/15 06:48:53;;;;;;;4.43;0.98;;;;;;;;;;5082465;24;20156;-82
2023/04/15 06:51:22;;;;;;;0.50;0.50;;;;;;;;;;4848672;29;20057;-81
2023/04/15 06:53:54;;;;;;;3.42;1.00;;;;;;;;;;4846822;29;20042;-83
2023/04/15 06:56:22;;;;;;;1.58;0.90;;;;;;;;;;4853171;29;20061;-82
2023/04/15 06:58:51;;;;;;;0.90;0.57;;;;;;;;;;4850886;29;20041;-82
2023/04/15 07:01:20;;;;;;;1.10;0.98;;;;;;;;;;4855826;29;20164;-82
2023/04/15 07:03:49;;;;;;;0.90;0.70;;;;;;;;;;4849826;29;20054;-82
2023/04/15 07:06:17;;;;;;;1.50;0.80;;;;;;;;;;4846392;29;20052;-82
2023/04/15 07:08:46;;;;;;;1.45;1.10;;;;;;;;;;4844749;29;20513;-81
2023/04/15 07:11:16;;;;;;;1.95;1.13;;;;;;;;;;4857619;29;20159;-82
2023/04/15 07:13:44;;;;;;;1.73;1.63;;;;;;;;;;4872135;29;20065;-81
2023/04/15 07:16:13;;;;;;;0.95;0.90;;;;;;;;;;4864801;29;20069;-81
2023/04/15 07:18:42;;;;;;;2.28;1.00;;;;;;;;;;4855796;29;20144;-81
2023/04/15 07:21:11;;;;;;;0.95;0.95;;;;;;;;;;4858204;29;20049;-81
2023/04/15 07:23:40;;;;;;;1.25;1.15;;;;;;;;;;4855259;29;20117;-81
2023/04/15 07:26:09;;;;;;;0.80;0.80;;;;;;;;;;4853879;29;20057;-81
2023/04/15 07:28:38;;;;;;;71.38;63.60;;;;;;;;;;4854591;29;20052;-82
2023/04/15 07:31:07;;;;;;;0.68;0.52;;;;;;;;;;4850582;29;20529;-82
2023/04/15 07:33:35;;;;;;;18.80;16.83;;;;;;;;;;4853722;29;20057;-83
2023/04/15 07:36:04;;;;;;;3.45;3.20;;;;;;;;;;4852680;29;20083;-83
2023/04/15 07:38:33;;;;;;;1.35;1.00;;;;;;;;;;4856313;29;20060;-82
2023/04/15 07:41:02;;;;;;;1.00;1.00;;;;;;;;;;4868031;29;20109;-81
2023/04/15 07:43:30;;;;;;;1.17;1.08;;;;;;;;;;4858826;29;20105;-80
2023/04/15 07:46:00;;;;;;;2.85;0.98;;;;;;;;;;4857202;29;20110;-81
2023/04/15 07:48:28;;;;;;;0.90;0.90;;;;;;;;;;4863146;29;20114;-81
2023/04/15 07:50:59;;;;;;;0.75;0.75;;;;;;;;;;4856538;29;20168;-83
2023/04/15 07:53:28;;;;;;;1.00;1.00;;;;;;;;;;4847080;29;20064;-81
2023/04/15 07:55:56;;;;;;;0.77;0.70;;;;;;;;;;4855682;29;20695;-80
2023/04/15 07:58:25;;;;;;;1.70;1.60;;;;;;;;;;4854076;29;20057;-81
2023/04/15 08:00:54;;;;;;;1.10;1.00;;;;;;;;;;4858658;29;20049;-78
2023/04/15 08:03:23;;;;;;;7.88;6.75;;;;;;;;;;4846145;29;20057;-80
2023/04/15 08:05:51;;;;;;;2.55;2.45;;;;;;;;;;4855512;24;20046;-79
2023/04/15 08:08:21;;;;;;;1.40;1.30;;;;;;;;;;4835001;29;20042;-79
2023/04/15 08:10:50;;;;;;;3.75;3.45;;;;;;;;;;4836320;29;20139;-83
2023/04/15 08:13:20;;;;;;;1.30;1.30;;;;;;;;;;4834962;29;20054;-81
2023/04/15 08:15:53;;;;;;;2.60;1.20;;;;;;;;;;4830579;29;20053;-80
2023/04/15 08:18:21;;;;;;;1.35;1.25;;;;;;;;;;4834474;29;20220;-78
2023/04/15 08:20:50;;;;;;;2.88;1.00;;;;;;;;;;4832427;29;20048;-81
2023/04/15 08:23:19;;;;;;;2.15;1.10;;;;;;;;;;4833519;29;20056;-78
2023/04/15 08:25:48;;;;;;;1.30;1.23;;;;;;;;;;4824707;29;20052;-80
2023/04/15 08:28:17;;;;;;;5.50;3.15;;;;;;;;;;4829545;29;20049;-77
2023/04/15 08:30:46;;;;;;;2.53;2.08;;;;;;;;;;4832840;29;20057;-80
2023/04/15 08:33:15;;;;;;;4.70;1.85;;;;;;;;;;4833021;29;20056;-77
2023/04/15 08:35:44;;;;;;;1.63;1.52;;;;;;;;;;4840356;29;20054;-81
2023/04/15 08:38:12;;;;;;;1.13;1.05;;;;;;;;;;4832756;29;20687;-78
2023/04/15 08:40:43;;;;;;;2.53;1.10;;;;;;;;;;4844365;29;20050;-79
2023/04/15 08:43:25;;;;;;;3.15;1.40;;;;;;;;;;4842682;29;20420;-78
2023/04/15 08:45:54;;;;;;;1.65;1.27;;;;;;;;;;4839847;29;20061;-79
2023/04/15 08:48:23;;;;;;;1.20;1.17;;;;;;;;;;4839475;29;20050;-79
2023/04/15 08:50:52;;;;;;;1.08;1.08;;;;;;;;;;4839095;29;20046;-78
2023/04/15 08:53:21;;;;;;;3.50;1.70;;;;;;;;;;4844051;29;20057;-80
2023/04/15 08:55:52;;;;;;;1.48;1.30;;;;;;;;;;4836423;29;20062;-77
2023/04/15 08:58:21;;;;;;;1.35;1.33;;;;;;;;;;4845719;29;20571;-78
2023/04/15 09:00:53;;;;;;;2.30;2.10;;;;;;;;;;4843122;29;20056;-78
2023/04/15 09:03:23;;;;;;;1.05;1.00;;;;;;;;;;4838736;29;20055;-79
2023/04/15 09:05:52;;;;;;;1.48;1.25;;;;;;;;;;4841734;29;20526;-78
2023/04/15 09:08:21;;;;;;;2.88;1.73;;;;;;;;;;4841215;29;20544;-76
2023/04/15 09:10:50;;;;;;;0.95;0.95;;;;;;;;;;4839810;29;20057;-77
2023/04/15 09:13:19;;;;;;;1.05;1.00;;;;;;;;;;4838911;29;20057;-79
2023/04/15 09:15:48;;;;;;;1.60;1.50;;;;;;;;;;4836249;29;20080;-78
2023/04/15 09:18:36;;;;;;;2.88;2.75;;;;;;;;;;4835696;29;20064;-80
2023/04/15 09:21:07;;;;;;;0.82;0.82;;;;;;;;;;4825467;29;20053;-79
2023/04/15 09:23:37;;;;;;;1.17;1.10;;;;;;;;;;4835870;29;20045;-82
2023/04/15 09:26:06;;;;;;;0.60;0.60;;;;;;;;;;4824269;29;20416;-81
2023/04/15 09:28:41;;;;;;;2.78;1.60;;;;;;;;;;4828686;29;20048;-80
2023/04/15 09:31:09;;;;;;;40.63;36.33;;;;;;;;;;4834754;29;20066;-80
2023/04/15 09:33:53;;;;;;;1.67;1.50;;;;;;;;;;4831560;29;20062;-78
2023/04/15 09:36:23;;;;;;;2.95;1.00;;;;;;;;;;4832568;29;20288;-80
2023/04/15 09:38:56;;;;;;;2.40;1.60;;;;;;;;;;4835643;29;20517;-80
2023/04/15 09:41:25;;;;;;;1.92;1.75;;;;;;;;;;4832004;29;20046;-78
2023/04/15 09:43:54;;;;;;;6.00;4.65;;;;;;;;;;4823746;29;20065;-81
2023/04/15 09:46:41;;;;;;;3.10;1.20;;;;;;;;;;4828170;29;20060;-81
2023/04/15 09:49:10;;;;;;;1.13;1.00;;;;;;;;;;4824560;29;20060;-79
2023/04/15 09:51:39;;;;;;;1.50;1.10;;;;;;;;;;4818588;29;20047;-79
2023/04/15 09:54:08;;;;;;;0.90;0.90;;;;;;;;;;4834178;29;20058;-78
2023/04/15 09:56:40;;;;;;;3.60;1.27;;;;;;;;;;4826351;29;20089;-79
2023/04/15 09:59:09;;;;;;;1.45;1.35;;;;;;;;;;4822842;29;20058;-81
2023/04/15 10:01:37;;;;;;;2.33;1.02;;;;;;;;;;4818953;29;20056;-81
2023/04/15 10:04:06;;;;;;;2.83;2.70;;;;;;;;;;4811878;29;20046;-80
2023/04/15 10:06:39;;;;;;;2.53;1.55;;;;;;;;;;4821533;29;20046;-81
2023/04/15 10:09:14;;;;;;;4.80;1.52;;;;;;;;;;4822088;29;20045;-77
2023/04/15 10:11:43;;;;;;;2.90;1.20;;;;;;;;;;4816667;29;20412;-81
2023/04/15 10:14:16;;;;;;;0.90;0.68;;;;;;;;;;4815424;29;20076;-81
2023/04/15 10:16:47;;;;;;;0.90;0.90;;;;;;;;;;4822581;29;20060;-79
2023/04/15 10:19:24;;;;;;;2.15;1.05;;;;;;;;;;4824795;29;20054;-80
2023/04/15 10:21:54;;;;;;;0.90;0.90;;;;;;;;;;4821094;29;20046;-78
2023/04/15 10:24:24;;;;;;;0.70;0.70;;;;;;;;;;4824647;29;20050;-81
2023/04/15 10:26:53;;;;;;;1.13;1.02;;;;;;;;;;4822791;29;20042;-79
2023/04/15 10:29:22;;;;;;;4.20;1.48;;;;;;;;;;4816705;29;20041;-82
2023/04/15 10:31:53;;;;;;;0.90;0.90;;;;;;;;;;4819775;29;20049;-81
2023/04/15 10:34:23;;;;;;;1.48;1.38;;;;;;;;;;4837316;29;20054;-80
2023/04/15 10:36:56;;;;;;;1.33;1.23;;;;;;;;;;4823537;29;20046;-81
2023/04/15 10:39:34;;;;;;;2.90;0.90;;;;;;;;;;4826283;29;20058;-79
2023/04/15 10:42:10;;;;;;;0.90;0.90;;;;;;;;;;4816742;29;20038;-81
2023/04/15 10:44:41;;;;;;;0.82;0.82;;;;;;;;;;4817759;29;20792;-79
2023/04/15 10:47:17;;;;;;;0.80;0.80;;;;;;;;;;4817474;29;20614;-82
2023/04/15 10:49:50;;;;;;;1.85;1.75;;;;;;;;;;4820214;29;20054;-79
2023/04/15 10:52:23;;;;;;;1.23;0.88;;;;;;;;;;4823418;29;20046;-78
2023/04/15 10:55:14;;;;;;;2.47;1.40;;;;;;;;;;4823817;29;20424;-81
2023/04/15 10:57:43;;;;;;;1.10;1.00;;;;;;;;;;4819251;29;20064;-82
2023/04/15 11:00:13;;;;;;;1.88;1.23;;;;;;;;;;4822177;29;20058;-81
2023/04/15 11:02:54;;;;;;;1.00;1.00;;;;;;;;;;4821136;29;20042;-80
2023/04/15 11:05:43;;;;;;;1.58;1.45;;;;;;;;;;4819150;29;20064;-82
2023/04/15 11:08:12;;;;;;;1.15;1.15;;;;;;;;;;4823311;29;20056;-79
2023/04/15 11:10:41;;;;;;;0.80;0.80;;;;;;;;;;4820559;29;20050;-80
2023/04/15 11:13:10;;;;;;;5.32;2.53;;;;;;;;;;4820358;29;20068;-79
2023/04/15 11:15:41;;;;;;;6.22;1.90;;;;;;;;;;4819693;29;20054;-80
2023/04/15 11:18:13;;;;;;;3.03;1.48;;;;;;;;;;4824237;29;20054;-78
2023/04/15 11:20:44;;;;;;;2.15;1.42;;;;;;;;;;4821638;29;20046;-80
2023/04/15 11:23:14;;;;;;;2.47;2.25;;;;;;;;;;4814388;29;20053;-80
2023/04/15 11:25:47;;;;;;;2.10;1.90;;;;;;;;;;4820924;29;20875;-77
2023/04/15 11:28:16;;;;;;;2.58;2.20;;;;;;;;;;4823883;29;20053;-80
2023/04/15 11:30:45;;;;;;;2.78;2.58;;;;;;;;;;4830218;29;20104;-79
2023/04/15 11:33:22;;;;;;;35.60;12.15;;;;;;;;;;4832367;29;20050;-81
2023/04/15 11:35:54;;;;;;;5.35;2.38;;;;;;;;;;4829877;29;20050;-80
2023/04/15 11:38:23;;;;;;;3.97;1.70;;;;;;;;;;4824015;29;20052;-80
2023/04/15 11:40:52;;;;;;;1.60;1.50;;;;;;;;;;4826826;29;20103;-79
2023/04/15 11:43:21;;;;;;;1.63;1.52;;;;;;;;;;4820899;29;20053;-81
2023/04/15 11:45:55;;;;;;;2.17;1.95;;;;;;;;;;4819943;29;20060;-81
2023/04/15 11:48:25;;;;;;;1.92;1.50;;;;;;;;;;4824463;29;20396;-78
2023/04/15 11:50:58;;;;;;;1.60;1.50;;;;;;;;;;4826007;29;20061;-78
2023/04/15 11:53:38;;;;;;;1.60;1.50;;;;;;;;;;4822145;29;20085;-79
2023/04/15 11:56:05;;;;;;;1.67;1.58;;;;;;;;;;4825701;29;20504;-81
2023/04/15 11:58:36;;;;;;;1.80;1.70;;;;;;;;;;4825793;29;20073;-79
2023/04/15 12:01:04;;;;;;;4.40;1.80;;;;;;;;;;4826292;29;20106;-81
2023/04/15 12:03:38;;;;;;;11.80;9.57;;;;;;;;;;4824366;29;21544;-81
2023/04/15 12:06:11;;;;;;;2.60;2.40;;;;;;;;;;4820304;29;20129;-84
2023/04/15 12:08:51;;;;;;;4.43;2.60;;;;;;;;;;4819945;29;20588;-80
2023/04/15 12:11:30;;;;;;;2.67;2.40;;;;;;;;;;4818888;29;20048;-80
2023/04/15 12:14:02;;;;;;;2.58;2.38;;;;;;;;;;4820406;29;20070;-82
2023/04/15 12:16:30;;;;;;;3.03;1.95;;;;;;;;;;4810232;29;20064;-81
2023/04/15 12:18:58;;;;;;;3.97;2.00;;;;;;;;;;4819430;29;20524;-82
2023/04/15 12:21:28;;;;;;;3.55;2.20;;;;;;;;;;4825180;29;20814;-82
2023/04/15 12:23:56;;;;;;;5.82;5.30;;;;;;;;;;4822646;29;20057;-79
2023/04/15 12:26:31;;;;;;;1.75;1.65;;;;;;;;;;4820047;29;20053;-79
2023/04/15 12:29:06;;;;;;;2.30;1.88;;;;;;;;;;4820525;29;20748;-82
2023/04/15 12:31:38;;;;;;;1.50;1.40;;;;;;;;;;4823676;29;20042;-80
2023/04/15 12:34:08;;;;;;;2.33;2.00;;;;;;;;;;4822841;29;20097;-81
2023/04/15 12:36:36;;;;;;;1.33;1.33;;;;;;;;;;4826440;29;20073;-82
2023/04/15 12:39:04;;;;;;;1.70;1.60;;;;;;;;;;4826983;29;20141;-81
2023/04/15 12:41:32;;;;;;;2.80;1.70;;;;;;;;;;4826514;29;20085;-82
2023/04/15 12:44:01;;;;;;;1.98;1.70;;;;;;;;;;4827512;29;20077;-81
2023/04/15 12:46:29;;;;;;;4.72;1.90;;;;;;;;;;4826689;29;20255;-79
2023/04/15 12:48:57;;;;;;;2.42;2.17;;;;;;;;;;4826404;29;20142;-80
2023/04/15 12:51:27;;;;;;;1.60;1.50;;;;;;;;;;4826702;29;20042;-80
2023/04/15 12:53:54;;;;;;;3.42;1.92;;;;;;;;;;4821165;29;20513;-81
2023/04/15 12:56:22;;;;;;;3.67;2.10;;;;;;;;;;4823737;29;20050;-81
2023/04/15 12:58:50;;;;;;;2.45;2.25;;;;;;;;;;4823774;29;20056;-81
2023/04/15 13:01:18;;;;;;;1.88;1.73;;;;;;;;;;4825005;29;20080;-78
2023/04/15 13:03:47;;;;;;;7.18;1.40;;;;;;;;;;4828550;29;20053;-79
2023/04/15 13:06:14;;;;;;;1.23;1.13;;;;;;;;;;4824163;29;20053;-81
2023/04/15 13:08:42;;;;;;;2.72;0.98;;;;;;;;;;4820530;29;20088;-77
2023/04/15 13:11:24;;;;;;;2.45;1.05;;;;;;;;;;4824969;29;20046;-78
2023/04/15 13:13:52;;;;;;;1.15;1.10;;;;;;;;;;4825544;29;20314;-78
2023/04/15 13:16:20;;;;;;;2.70;1.65;;;;;;;;;;4829403;29;20056;-80
2023/04/15 13:18:48;;;;;;;1.83;1.23;;;;;;;;;;4822184;29;20110;-80
2023/04/15 13:21:16;;;;;;;0.60;0.60;;;;;;;;;;4827364;29;20416;-80
2023/04/15 13:23:43;;;;;;;1.45;1.35;;;;;;;;;;4818939;29;20737;-79
2023/04/15 13:26:11;;;;;;;39.50;29.67;;;;;;;;;;4826569;29;20061;-78
2023/04/15 13:28:38;;;;;;;1.67;1.58;;;;;;;;;;4830031;29;20077;-79
2023/04/15 13:31:06;;;;;;;4.07;1.65;;;;;;;;;;4828214;29;20042;-78
2023/04/15 13:33:33;;;;;;;2.28;2.08;;;;;;;;;;4828655;29;20102;-77
2023/04/15 13:36:01;;;;;;;2.08;1.90;;;;;;;;;;4823811;29;20102;-78
2023/04/15 13:38:29;;;;;;;2.15;1.98;;;;;;;;;;4832143;29;20050;-78
2023/04/15 13:40:57;;;;;;;2.05;1.83;;;;;;;;;;4830395;29;20053;-80
2023/04/15 13:43:25;;;;;;;2.50;2.30;;;;;;;;;;4828630;29;20050;-79
2023/04/15 13:45:52;;;;;;;3.13;2.10;;;;;;;;;;4824501;29;20522;-79
2023/04/15 13:48:20;;;;;;;1.90;1.77;;;;;;;;;;4826742;29;20117;-78
2023/04/15 13:50:47;;;;;;;1.65;1.55;;;;;;;;;;4833584;29;20497;-79
2023/04/15 13:53:15;;;;;;;1.40;1.40;;;;;;;;;;4825467;29;20120;-79
2023/04/15 13:55:42;;;;;;;1.27;1.08;;;;;;;;;;4831843;29;20050;-77
2023/04/15 13:58:10;;;;;;;3.75;1.38;;;;;;;;;;4840432;29;20061;-78
2023/04/15 14:00:38;;;;;;;2.83;1.38;;;;;;;;;;4829603;29;20050;-79
2023/04/15 14:03:05;;;;;;;1.30;1.30;;;;;;;;;;4829764;29;20568;-78
2023/04/15 14:05:33;;;;;;;2.10;1.90;;;;;;;;;;4862395;24;20509;-83
2023/04/15 14:08:23;;;;;;;2.70;1.40;;;;;;;;;;4844378;29;20454;-85
2023/04/15 14:11:06;;;;;;;2.72;2.53;;;;;;;;;;4852976;29;20041;-85
2023/04/15 14:13:44;;;;;;;2.10;2.00;;;;;;;;;;4855893;29;20132;-84
2023/04/15 14:16:23;;;;;;;1.67;1.40;;;;;;;;;;4849590;29;20057;-85
2023/04/15 14:18:54;;;;;;;1.30;1.20;;;;;;;;;;4848676;29;20041;-85
2023/04/15 14:21:35;;;;;;;1.63;1.55;;;;;;;;;;4856287;29;20066;-86
2023/04/15 14:24:09;;;;;;;1.65;1.48;;;;;;;;;;4854619;29;20076;-84
2023/04/15 14:26:46;;;;;;;4.75;2.80;;;;;;;;;;4850871;29;20041;-83
2023/04/15 14:29:25;;;;;;;1.73;1.63;;;;;;;;;;4850712;29;20868;-84
2023/04/15 14:31:53;;;;;;;9.45;6.70;;;;;;;;;;4855508;29;20094;-86
2023/04/15 14:34:48;;;;;;;8.02;7.30;;;;;;;;;;4849787;29;20102;-84
2023/04/15 14:37:36;;;;;;;1.60;1.50;;;;;;;;;;4840580;29;20069;-84
2023/04/15 14:40:28;;;;;;;1.80;1.70;;;;;;;;;;4848387;29;20050;-85
2023/04/15 14:43:02;;;;;;;1.52;1.42;;;;;;;;;;4849703;29;20075;-85
2023/04/15 14:46:33;;;;;;;1.15;1.15;;;;;;;;;;4846075;29;20087;-85
2023/04/15 14:49:08;;;;;;;1.75;1.65;;;;;;;;;;4851400;29;20217;-84
2023/04/15 14:51:54;;;;;;;3.30;1.38;;;;;;;;;;4863256;29;20140;-84
2023/04/15 14:54:24;;;;;;;1.88;1.70;;;;;;;;;;4863997;29;20040;-82
2023/04/15 14:57:02;;;;;;;2.20;2.00;;;;;;;;;;4860530;29;20116;-83
2023/04/15 15:00:11;;;;;;;2.20;1.98;;;;;;;;;;4847332;29;20450;-84
2023/04/15 15:02:46;;;;;;;1.75;1.65;;;;;;;;;;4849832;29;20090;-82
2023/04/15 15:05:14;;;;;;;2.58;1.88;;;;;;;;;;4847781;29;20046;-85
2023/04/15 15:07:42;;;;;;;3.28;2.17;;;;;;;;;;4845885;29;20045;-85
2023/04/15 15:10:14;;;;;;;2.38;1.70;;;;;;;;;;4848261;29;20049;-83
2023/04/15 15:12:44;;;;;;;17.38;14.93;;;;;;;;;;4848176;29;20132;-85
2023/04/15 15:15:12;;;;;;;2.30;2.00;;;;;;;;;;4850570;29;20054;-83
2023/04/15 15:17:55;;;;;;;1.50;1.50;;;;;;;;;;4855891;29;20158;-84
2023/04/15 15:20:23;;;;;;;3.05;2.20;;;;;;;;;;4855109;29;20049;-83
2023/04/15 15:22:57;;;;;;;2.45;2.15;;;;;;;;;;4852235;29;20106;-84
2023/04/15 15:25:35;;;;;;;2.30;2.10;;;;;;;;;;4856048;29;20074;-84
2023/04/15 15:28:03;;;;;;;4.60;2.00;;;;;;;;;;4853890;29;20045;-84
2023/04/15 15:30:53;;;;;;;2.40;1.92;;;;;;;;;;4856258;29;20052;-83
2023/04/15 15:33:32;;;;;;;2.35;1.75;;;;;;;;;;4850626;29;20092;-84
2023/04/15 15:36:12;;;;;;;2.40;2.30;;;;;;;;;;4858768;29;20100;-84
2023/04/15 15:38:48;;;;;;;2.80;2.60;;;;;;;;;;4850086;29;20272;-84
2023/04/15 15:41:34;;;;;;;3.42;2.10;;;;;;;;;;4851149;29;20057;-84
2023/04/15 15:53:19;;;;;;;13.57;9.13;;;;;;;;;;4793718;29;20138;-85
2023/04/15 16:03:50;;;;;;;2.60;2.50;;;;;;;;;;4771630;29;20162;-83
2023/04/15 16:06:20;;;;;;;31.27;15.43;;;;;;;;;;4772026;29;20253;-83
2023/04/15 16:08:47;;;;;;;2.17;2.03;;;;;;;;;;4770122;29;20255;-79
2023/04/15 16:11:15;;;;;;;2.00;1.90;;;;;;;;;;4773740;29;20078;-80
2023/04/15 16:13:43;;;;;;;2.15;2.05;;;;;;;;;;4775094;29;20057;-79
2023/04/15 16:16:10;;;;;;;2.42;2.22;;;;;;;;;;4772564;29;20059;-79
2023/04/15 16:18:38;;;;;;;2.22;2.03;;;;;;;;;;4769913;29;20054;-79